Time;durP1;ratioP1;P1;durP2;ratioP2;P2;SDS_P1;SDS_P2;PMS_P1;PMS_P2;Temp;Humidity;BMP_temperature;BMP_pressure;BME280_temperature;BME280_humidity;BME280_pressure;Samples;Min_cycle;Max_cycle;Signal;HPM_P1;HPM_P2
2023/05/29 00:00:20;;;;;;;;;10.00;10.00;;;;;20.57;47.43;101538.81;6187316;22;45411;-54
2023/05/29 00:02:46;;;;;;;;;9.33;9.00;;;;;20.54;47.32;101537.22;6213407;22;45580;-54
2023/05/29 00:05:12;;;;;;;;;10.33;9.00;;;;;20.52;47.78;101544.59;6213853;22;45426;-54
2023/05/29 00:07:38;;;;;;;;;13.00;12.00;;;;;20.49;46.83;101544.81;6214174;22;45356;-52
2023/05/29 00:10:05;;;;;;;;;10.67;10.67;;;;;20.45;47.32;101549.59;6186212;22;45379;-53
2023/05/29 00:12:30;;;;;;;;;11.33;10.00;;;;;20.44;47.57;101545.22;6214357;22;45509;-52
2023/05/29 00:14:57;;;;;;;;;8.67;8.67;;;;;20.44;47.16;101549.72;6212212;22;73327;-53
2023/05/29 00:17:22;;;;;;;;;13.67;10.00;;;;;20.41;47.75;101550.84;6187992;22;45373;-54
2023/05/29 00:19:48;;;;;;;;;20.67;12.33;;;;;20.36;47.53;101546.81;6213351;22;45471;-54
2023/05/29 00:22:13;;;;;;;;;13.00;10.00;;;;;20.30;48.39;101549.00;6212424;22;61251;-54
2023/05/29 00:24:38;;;;;;;;;11.00;9.33;;;;;20.27;48.06;101546.56;6187104;22;45518;-54
2023/05/29 00:27:04;;;;;;;;;12.33;9.33;;;;;20.24;47.24;101551.34;6212395;22;63868;-53
2023/05/29 00:29:30;;;;;;;;;9.67;9.67;;;;;20.17;48.13;101553.66;6214452;22;45374;-53
2023/05/29 00:31:56;;;;;;;;;17.67;12.00;;;;;20.08;48.09;101560.66;6213435;22;45407;-54
2023/05/29 00:34:23;;;;;;;;;9.33;9.33;;;;;20.03;47.84;101556.59;6214112;22;45352;-54
2023/05/29 00:36:48;;;;;;;;;13.67;9.67;;;;;19.98;48.23;101549.69;6187672;22;45326;-53
2023/05/29 00:39:13;;;;;;;;;11.00;10.00;;;;;19.96;48.38;101553.53;6186643;22;47932;-52
2023/05/29 00:41:39;;;;;;;;;10.33;10.00;;;;;19.92;48.26;101543.91;6184356;22;61796;-53
2023/05/29 00:44:04;;;;;;;;;14.67;9.00;;;;;19.90;48.45;101544.03;6213469;22;45324;-54
2023/05/29 00:46:31;;;;;;;;;8.00;6.67;;;;;19.92;48.04;101550.19;6213902;22;45614;-54
2023/05/29 00:48:57;;;;;;;;;12.67;11.00;;;;;19.89;48.43;101531.53;6214156;22;45380;-53
2023/05/29 00:51:24;;;;;;;;;17.00;12.00;;;;;19.89;48.14;101531.53;6213726;22;45523;-51
2023/05/29 00:53:50;;;;;;;;;13.00;8.00;;;;;19.88;48.76;101527.13;6187322;22;45322;-53
2023/05/29 00:56:17;;;;;;;;;10.00;10.00;;;;;19.86;48.27;101539.88;6211783;22;45390;-53
2023/05/29 00:58:43;;;;;;;;;7.67;7.67;;;;;19.83;48.87;101537.41;6212142;22;45582;-53
2023/05/29 01:01:08;;;;;;;;;14.33;10.00;;;;;19.81;49.18;101533.94;6185782;22;58076;-53
2023/05/29 01:03:35;;;;;;;;;10.00;9.00;;;;;19.76;48.55;101539.69;6213458;22;48487;-53
2023/05/29 01:06:01;;;;;;;;;9.33;8.00;;;;;19.73;49.47;101530.97;6213381;22;45701;-53
2023/05/29 01:08:26;;;;;;;;;13.00;10.00;;;;;19.69;48.50;101530.34;6213960;22;45376;-52
2023/05/29 01:10:56;;;;;;;;;9.67;8.00;;;;;19.66;49.00;101534.16;6186295;22;58074;-54
2023/05/29 01:13:27;;;;;;;;;13.67;8.67;;;;;19.64;49.14;101532.53;6188160;22;46338;-52
2023/05/29 01:15:58;;;;;;;;;11.00;8.00;;;;;19.60;48.72;101526.50;6185864;22;45316;-53
2023/05/29 01:18:50;;;;;;;;;13.00;10.00;;;;;19.60;48.63;101534.59;6215412;22;45415;-53
2023/05/29 01:21:58;;;;;;;;;13.00;10.67;;;;;19.60;48.19;101525.66;6188098;22;45407;-53
2023/05/29 01:24:37;;;;;;;;;12.33;9.00;;;;;19.58;48.67;101533.88;6215012;22;45334;-53
2023/05/29 01:27:10;;;;;;;;;11.33;11.00;;;;;19.57;49.01;101534.84;6186877;22;45545;-52
2023/05/29 01:29:38;;;;;;;;;9.33;9.00;;;;;19.54;49.09;101537.78;6215348;22;45349;-54
2023/05/29 01:32:05;;;;;;;;;13.33;10.33;;;;;19.53;48.63;101538.78;6186971;22;45518;-54
2023/05/29 01:34:30;;;;;;;;;10.00;9.00;;;;;19.54;48.54;101551.25;6214231;22;46290;-53
2023/05/29 01:36:55;;;;;;;;;12.33;9.33;;;;;19.50;49.37;101541.69;6187531;22;45317;-53
2023/05/29 01:39:21;;;;;;;;;12.67;11.33;;;;;19.48;48.75;101543.66;6214373;22;49952;-53
2023/05/29 01:41:47;;;;;;;;;12.33;11.00;;;;;19.47;49.19;101544.63;6188305;22;45340;-54
2023/05/29 01:44:13;;;;;;;;;11.33;8.67;;;;;19.45;48.90;101538.47;6187867;22;45461;-54
2023/05/29 01:46:39;;;;;;;;;12.33;11.00;;;;;19.38;49.10;101540.78;6188377;22;45298;-54
2023/05/29 01:49:05;;;;;;;;;10.00;10.00;;;;;19.36;49.05;101539.19;6213829;22;45409;-53
2023/05/29 01:51:31;;;;;;;;;8.67;6.67;;;;;19.32;49.80;101542.13;6187276;22;62667;-51
2023/05/29 01:53:57;;;;;;;;;10.00;10.00;;;;;19.28;50.56;101542.44;6187428;22;47592;-51
2023/05/29 01:56:23;;;;;;;;;17.00;13.33;;;;;19.22;50.67;101541.09;6214619;22;45224;-53
2023/05/29 01:58:49;;;;;;;;;12.67;9.33;;;;;19.16;50.09;101539.72;6188433;22;45342;-54
2023/05/29 02:01:14;;;;;;;;;12.00;10.00;;;;;19.13;50.33;101539.94;6187626;22;45350;-52
2023/05/29 02:03:39;;;;;;;;;12.00;9.33;;;;;19.10;50.19;101540.19;6215379;22;45450;-54
2023/05/29 02:06:06;;;;;;;;;10.33;10.00;;;;;19.08;50.35;101543.97;6185687;22;53484;-53
2023/05/29 02:08:31;;;;;;;;;9.33;9.33;;;;;19.06;50.38;101552.16;6214741;22;45321;-54
2023/05/29 02:10:57;;;;;;;;;13.67;11.00;;;;;19.05;50.38;101546.91;6213489;22;64319;-54
2023/05/29 02:13:22;;;;;;;;;10.00;9.00;;;;;19.04;50.40;101545.16;6186432;22;67649;-51
2023/05/29 02:15:47;;;;;;;;;11.67;10.33;;;;;19.04;50.50;101558.66;6161730;22;65358;-54
2023/05/29 02:18:15;;;;;;;;;11.67;10.00;;;;;19.01;50.90;101546.25;6214598;22;45339;-54
2023/05/29 02:20:40;;;;;;;;;12.00;10.33;;;;;18.98;50.32;101538.38;6215135;22;45712;-53
2023/05/29 02:23:08;;;;;;;;;7.67;7.33;;;;;18.96;50.97;101543.03;6213313;22;45189;-51
2023/05/29 02:25:34;;;;;;;;;10.00;9.67;;;;;18.93;50.97;101543.25;6213906;22;45307;-53
2023/05/29 02:27:59;;;;;;;;;12.67;8.67;;;;;18.88;51.00;101538.19;6187315;22;45186;-54
2023/05/29 02:30:25;;;;;;;;;13.00;11.33;;;;;18.88;50.69;101543.56;6188221;22;45601;-53
2023/05/29 02:32:50;;;;;;;;;8.67;6.33;;;;;18.84;51.78;101547.47;6187612;22;46987;-54
2023/05/29 02:35:20;;;;;;;;;11.33;8.33;;;;;18.81;51.93;101544.97;6188562;22;45379;-54
2023/05/29 02:37:46;;;;;;;;;14.00;10.33;;;;;18.76;52.87;101544.44;6187970;22;45353;-53
2023/05/29 02:40:11;;;;;;;;;11.00;11.00;;;;;18.70;51.82;101544.91;6213517;22;45154;-54
2023/05/29 02:42:36;;;;;;;;;12.67;9.67;;;;;18.67;51.60;101537.91;6214524;22;45814;-53
2023/05/29 02:45:02;;;;;;;;;10.00;10.00;;;;;18.63;52.77;101545.34;6213439;22;66452;-53
2023/05/29 02:47:27;;;;;;;;;11.33;9.33;;;;;18.59;51.93;101548.38;6215111;22;45199;-52
2023/05/29 02:49:53;;;;;;;;;19.33;13.67;;;;;18.56;52.92;101544.06;6214047;22;54521;-52
2023/05/29 02:52:18;;;;;;;;;11.33;9.33;;;;;18.51;52.79;101548.94;6213948;22;68559;-53
2023/05/29 02:54:43;;;;;;;;;17.00;12.00;;;;;18.46;53.27;101551.97;6187713;22;45673;-51
2023/05/29 02:57:09;;;;;;;;;9.00;9.00;;;;;18.43;52.39;101549.47;6212246;22;61050;-55
2023/05/29 02:59:35;;;;;;;;;10.67;10.00;;;;;18.43;53.36;101554.84;6214647;22;45455;-53
2023/05/29 03:02:00;;;;;;;;;10.67;9.33;;;;;18.37;52.53;101558.00;6187433;22;45368;-53
2023/05/29 03:04:26;;;;;;;;;12.33;10.00;;;;;18.35;53.68;101551.84;6214857;22;45331;-54
2023/05/29 03:06:52;;;;;;;;;13.67;12.67;;;;;18.30;54.69;101560.28;6214585;22;45277;-53
2023/05/29 03:09:18;;;;;;;;;10.33;9.00;;;;;18.26;53.81;101563.28;6215157;22;45406;-53
2023/05/29 03:11:44;;;;;;;;;11.33;10.33;;;;;18.22;53.72;101561.78;6215421;22;45508;-53
2023/05/29 03:14:10;;;;;;;;;14.00;12.00;;;;;18.21;53.77;101560.06;6188432;22;45338;-53
2023/05/29 03:16:35;;;;;;;;;13.00;13.00;;;;;18.19;54.57;101566.41;6214891;22;45271;-51
2023/05/29 03:19:01;;;;;;;;;18.00;14.33;;;;;18.18;54.08;101564.69;6187126;22;45426;-53
2023/05/29 03:21:26;;;;;;;;;16.00;11.00;;;;;18.15;54.46;101580.22;6214578;22;46313;-53
2023/05/29 03:23:52;;;;;;;;;17.33;13.00;;;;;18.10;54.91;101571.59;6187218;22;59184;-54
2023/05/29 03:26:17;;;;;;;;;11.00;10.33;;;;;18.06;55.30;101576.31;6213377;22;68768;-53
2023/05/29 03:28:42;;;;;;;;;18.00;15.00;;;;;18.05;54.40;101571.03;6213974;22;64995;-54
2023/05/29 03:31:08;;;;;;;;;12.00;12.00;;;;;18.00;55.50;101571.34;6212982;22;55285;-53
2023/05/29 03:33:33;;;;;;;;;13.67;12.33;;;;;17.96;54.56;101578.75;6187243;22;45330;-50
2023/05/29 03:35:59;;;;;;;;;14.67;13.00;;;;;17.94;54.81;101579.84;6214548;22;45078;-54
2023/05/29 03:38:24;;;;;;;;;17.33;11.00;;;;;17.93;54.90;101580.84;6214687;22;45301;-52
2023/05/29 03:40:50;;;;;;;;;12.33;10.00;;;;;17.90;54.88;101581.00;6213234;22;71568;-53
2023/05/29 03:43:15;;;;;;;;;12.33;11.00;;;;;17.87;55.43;101576.69;6214322;22;45383;-50
2023/05/29 03:45:40;;;;;;;;;13.00;12.00;;;;;17.84;55.65;101580.44;6214834;22;47123;-53
2023/05/29 03:48:06;;;;;;;;;16.00;14.67;;;;;17.80;56.34;101581.63;6212776;22;64179;-53
2023/05/29 03:50:31;;;;;;;;;11.33;11.33;;;;;17.77;57.15;101579.16;6213131;22;66709;-53
2023/05/29 03:52:56;;;;;;;;;10.67;10.67;;;;;17.75;56.45;101586.47;6185572;22;65637;-53
2023/05/29 03:55:22;;;;;;;;;11.33;9.00;;;;;17.71;55.90;101582.25;6213718;22;50145;-53
2023/05/29 03:57:47;;;;;;;;;21.67;13.67;;;;;17.69;56.46;101585.06;6214695;22;45632;-53
2023/05/29 04:00:13;;;;;;;;;13.33;13.00;;;;;17.66;56.83;101592.47;6212721;22;72600;-52
2023/05/29 04:02:38;;;;;;;;;14.67;13.33;;;;;17.62;56.51;101578.34;6214202;22;45284;-54
2023/05/29 04:05:06;;;;;;;;;14.00;13.67;;;;;17.58;56.39;101592.13;6213938;22;45221;-54
2023/05/29 04:07:41;;;;;;;;;17.00;14.33;;;;;17.57;56.12;101588.56;6213492;22;45369;-53
2023/05/29 04:10:07;;;;;;;;;18.33;14.33;;;;;17.56;56.42;101597.63;6213416;22;45927;-53
2023/05/29 04:12:32;;;;;;;;;14.00;13.00;;;;;17.57;56.86;101603.84;6214215;22;45348;-53
2023/05/29 04:14:58;;;;;;;;;16.67;14.00;;;;;17.60;56.47;101609.91;6213843;22;45368;-53
2023/05/29 04:17:23;;;;;;;;;15.33;13.67;;;;;17.64;57.51;101610.56;6187993;22;45220;-53
2023/05/29 04:19:49;;;;;;;;;13.67;13.67;;;;;17.65;57.34;101617.63;6211689;22;69826;-50
2023/05/29 04:22:14;;;;;;;;;15.33;15.00;;;;;17.65;56.98;101621.22;6212847;22;71490;-51
2023/05/29 04:24:41;;;;;;;;;17.33;16.33;;;;;17.65;56.42;101623.00;6213053;22;45634;-54
2023/05/29 04:27:12;;;;;;;;;13.00;12.33;;;;;17.64;57.05;101627.53;6187332;22;45346;-52
2023/05/29 04:29:42;;;;;;;;;15.67;15.00;;;;;17.63;56.90;101623.13;6213768;22;46374;-53
2023/05/29 04:32:11;;;;;;;;;13.33;11.67;;;;;17.66;57.01;101628.31;6186041;22;45378;-53
2023/05/29 04:34:39;;;;;;;;;14.33;14.33;;;;;17.69;56.75;101636.16;6214020;22;45571;-50
2023/05/29 04:37:05;;;;;;;;;20.67;16.00;;;;;17.75;56.87;101640.25;6213574;22;45364;-53
2023/05/29 04:39:31;;;;;;;;;15.67;13.00;;;;;17.76;56.45;101642.00;6213506;22;46346;-53
2023/05/29 04:41:58;;;;;;;;;19.33;16.67;;;;;17.79;57.02;101644.47;6185863;22;45335;-53
2023/05/29 04:44:25;;;;;;;;;16.00;14.33;;;;;17.81;57.49;101652.47;6213498;22;45476;-53
2023/05/29 04:46:51;;;;;;;;;14.67;13.00;;;;;17.79;56.62;101655.22;6214119;22;45296;-51
2023/05/29 04:49:17;;;;;;;;;20.00;16.67;;;;;17.81;57.74;101649.78;6214943;22;45910;-53
2023/05/29 04:51:42;;;;;;;;;24.33;17.67;;;;;17.78;57.32;101655.34;6214366;22;62504;-50
2023/05/29 04:54:09;;;;;;;;;17.33;15.00;;;;;17.79;57.14;101662.47;6215068;22;45217;-50
2023/05/29 04:56:34;;;;;;;;;18.67;14.33;;;;;17.80;56.69;101654.28;6214869;22;45299;-51
2023/05/29 04:58:59;;;;;;;;;21.00;17.00;;;;;17.84;56.94;101657.63;6213203;22;48096;-53
2023/05/29 05:01:25;;;;;;;;;25.00;18.67;;;;;17.83;56.75;101654.09;6188826;22;45354;-53
2023/05/29 05:03:54;;;;;;;;;18.67;17.33;;;;;17.86;57.71;101658.41;6187666;22;45392;-53
2023/05/29 05:06:19;;;;;;;;;17.67;14.67;;;;;17.88;58.02;101661.84;6213035;22;45573;-54
2023/05/29 05:08:44;;;;;;;;;17.33;14.67;;;;;17.93;57.05;101648.13;6212983;22;69400;-54
2023/05/29 05:11:10;;;;;;;;;20.67;15.33;;;;;17.94;56.99;101655.19;6212633;22;45345;-53
2023/05/29 05:13:35;;;;;;;;;19.00;17.67;;;;;17.93;57.14;101651.66;6213338;22;64852;-53
2023/05/29 05:16:01;;;;;;;;;10.00;9.33;;;;;17.93;57.78;101662.41;6212294;22;45242;-54
2023/05/29 05:18:26;;;;;;;;;16.67;15.67;;;;;18.02;56.47;101656.41;6211720;22;64189;-52
2023/05/29 05:20:51;;;;;;;;;20.00;15.00;;;;;18.10;57.09;101669.34;6186617;22;72175;-53
2023/05/29 05:23:17;;;;;;;;;18.33;15.67;;;;;18.13;56.18;101660.19;6213748;22;56626;-53
2023/05/29 05:25:42;;;;;;;;;15.33;14.67;;;;;18.21;55.73;101662.38;6187826;22;45337;-54
2023/05/29 05:28:08;;;;;;;;;16.00;14.00;;;;;18.30;55.73;101667.13;6212172;22;71684;-53
2023/05/29 05:30:33;;;;;;;;;14.67;14.67;;;;;18.35;55.80;101670.34;6215273;22;45385;-53
2023/05/29 05:32:59;;;;;;;;;19.00;19.00;;;;;18.40;55.39;101673.59;6212534;22;66620;-54
2023/05/29 05:35:24;;;;;;;;;17.33;15.67;;;;;18.33;56.05;101685.78;6187945;22;46207;-53
2023/05/29 05:37:50;;;;;;;;;20.00;17.33;;;;;18.38;55.85;101680.91;6214444;22;46095;-53
2023/05/29 05:40:15;;;;;;;;;21.00;17.33;;;;;18.45;55.54;101678.66;6214793;22;45353;-53
2023/05/29 05:42:41;;;;;;;;;18.00;15.67;;;;;18.42;55.95;101685.13;6185913;22;65501;-54
2023/05/29 05:45:07;;;;;;;;;17.33;16.00;;;;;18.42;56.08;101686.94;6213685;22;63277;-52
2023/05/29 05:47:32;;;;;;;;;24.67;16.67;;;;;18.49;54.93;101688.25;6213683;22;45409;-52
2023/05/29 05:49:58;;;;;;;;;17.00;16.00;;;;;18.54;55.12;101685.22;6214145;22;45351;-51
2023/05/29 05:52:24;;;;;;;;;18.67;15.33;;;;;18.57;55.30;101696.66;6213975;22;45299;-53
2023/05/29 05:54:50;;;;;;;;;17.33;15.67;;;;;18.59;55.11;101688.47;6187894;22;45499;-53
2023/05/29 05:57:15;;;;;;;;;21.67;20.00;;;;;18.61;55.07;101698.16;6186689;22;46026;-52
2023/05/29 05:59:40;;;;;;;;;20.33;17.67;;;;;18.66;54.73;101690.63;6212751;22;70265;-53
2023/05/29 06:02:06;;;;;;;;;21.33;16.33;;;;;18.74;54.54;101694.63;6215034;22;45213;-53
2023/05/29 06:04:31;;;;;;;;;18.00;16.67;;;;;18.62;54.46;101686.41;6213972;22;45353;-53
2023/05/29 06:06:56;;;;;;;;;20.33;17.67;;;;;18.86;54.41;101693.72;6213887;22;62123;-53
2023/05/29 06:09:22;;;;;;;;;16.67;15.33;;;;;18.98;53.94;101694.72;6213765;22;45229;-53
2023/05/29 06:11:48;;;;;;;;;15.67;13.67;;;;;19.07;53.91;101694.06;6214031;22;60722;-50
2023/05/29 06:14:14;;;;;;;;;20.33;17.67;;;;;19.15;53.55;101705.16;6213553;22;45589;-53
2023/05/29 06:16:39;;;;;;;;;18.33;18.33;;;;;19.23;53.17;101706.44;6214274;22;46712;-52
2023/05/29 06:19:05;;;;;;;;;21.00;17.67;;;;;19.33;53.41;101699.41;6212608;22;62870;-52
2023/05/29 06:21:31;;;;;;;;;16.67;15.00;;;;;19.49;52.99;101699.16;6187873;22;45380;-53
2023/05/29 06:23:57;;;;;;;;;18.33;16.33;;;;;19.64;52.19;101708.78;6213192;22;45294;-53
2023/05/29 06:26:24;;;;;;;;;15.00;15.00;;;;;19.84;51.92;101709.16;6214343;22;45578;-52
2023/05/29 06:28:50;;;;;;;;;18.67;15.00;;;;;19.95;51.31;101706.53;6213640;22;45388;-52
2023/05/29 06:31:15;;;;;;;;;19.00;14.33;;;;;20.12;51.28;101699.84;6186913;22;45225;-53
2023/05/29 06:33:40;;;;;;;;;19.67;17.67;;;;;20.67;49.77;101715.44;6213128;22;67514;-52
2023/05/29 06:36:06;;;;;;;;;20.00;16.33;;;;;21.58;48.58;101713.63;6214469;22;45255;-53
2023/05/29 06:38:32;;;;;;;;;19.67;18.67;;;;;22.50;47.75;101719.56;6214016;22;45319;-53
2023/05/29 06:40:57;;;;;;;;;19.33;15.33;;;;;23.43;44.78;101718.56;6213196;22;61593;-52
2023/05/29 06:43:22;;;;;;;;;15.33;13.00;;;;;24.43;43.22;101715.78;6212303;22;58918;-53
2023/05/29 06:45:48;;;;;;;;;15.33;15.00;;;;;25.38;42.30;101722.09;6212998;22;68245;-53
2023/05/29 06:48:13;;;;;;;;;17.00;16.33;;;;;26.21;41.04;101712.88;6186702;22;45414;-53
2023/05/29 06:50:38;;;;;;;;;15.33;14.33;;;;;27.10;38.97;101711.94;6214271;22;66897;-51
2023/05/29 06:53:04;;;;;;;;;14.00;14.00;;;;;27.86;37.40;101719.19;6213361;22;48011;-53
2023/05/29 06:55:29;;;;;;;;;16.67;15.00;;;;;28.37;36.28;101715.47;6215100;22;45239;-53
2023/05/29 06:57:55;;;;;;;;;19.33;16.33;;;;;28.81;32.60;101736.09;6161256;22;45329;-54
2023/05/29 07:00:20;;;;;;;;;17.00;15.00;;;;;29.30;33.71;101725.00;6188420;22;45430;-53
2023/05/29 07:02:46;;;;;;;;;19.00;16.33;;;;;29.75;31.48;101729.88;6215249;22;45455;-51
2023/05/29 07:05:11;;;;;;;;;18.33;16.67;;;;;30.17;31.01;101734.91;6214444;22;57740;-54
2023/05/29 07:07:36;;;;;;;;;20.33;16.33;;;;;30.50;30.73;101729.16;6214130;22;66230;-51
2023/05/29 07:10:02;;;;;;;;;14.67;13.00;;;;;30.80;29.21;101722.84;6213486;22;60146;-54
2023/05/29 07:12:27;;;;;;;;;16.33;16.33;;;;;31.18;29.83;101728.25;6214979;22;47910;-54
2023/05/29 07:14:52;;;;;;;;;14.33;13.67;;;;;31.72;29.49;101727.03;6212933;22;57712;-54
2023/05/29 07:17:18;;;;;;;;;14.33;14.33;;;;;32.19;29.36;101722.00;6213585;22;66211;-53
2023/05/29 07:19:43;;;;;;;;;17.67;15.00;;;;;32.59;26.94;101726.94;6214899;22;45864;-53
2023/05/29 07:22:08;;;;;;;;;15.33;14.67;;;;;32.97;27.68;101732.06;6214157;22;45505;-53
2023/05/29 07:24:34;;;;;;;;;12.00;12.00;;;;;33.48;27.69;101725.34;6187414;22;45334;-59
2023/05/29 07:26:59;;;;;;;;;14.67;14.67;;;;;34.10;26.91;101736.31;6213893;22;45396;-52
2023/05/29 07:29:25;;;;;;;;;14.33;13.33;;;;;34.39;26.23;101729.56;6215086;22;45323;-53
2023/05/29 07:31:51;;;;;;;;;15.33;15.00;;;;;34.79;25.72;101739.66;6213572;22;49436;-52
2023/05/29 07:34:16;;;;;;;;;15.67;15.00;;;;;35.10;25.78;101733.44;6215140;22;45646;-53
2023/05/29 07:37:02;;;;;;;;;11.67;11.67;;;;;35.53;24.34;101747.75;6187665;22;45312;-52
2023/05/29 07:39:27;;;;;;;;;16.00;16.00;;;;;35.59;24.62;101730.25;6214313;22;45201;-52
2023/05/29 07:41:53;;;;;;;;;20.67;19.33;;;;;35.94;24.04;101738.13;6187127;22;45347;-53
2023/05/29 07:44:18;;;;;;;;;19.00;12.00;;;;;36.26;22.62;101738.13;6214906;22;45363;-53
2023/05/29 07:46:44;;;;;;;;;17.67;15.33;;;;;36.34;22.19;101737.84;6214293;22;45272;-52
2023/05/29 07:49:10;;;;;;;;;17.00;15.33;;;;;36.53;22.79;101737.88;6186767;22;45282;-52
2023/05/29 07:51:35;;;;;;;;;16.33;15.33;;;;;37.02;22.08;101729.72;6187417;22;45375;-54
2023/05/29 07:54:00;;;;;;;;;17.00;16.33;;;;;37.71;21.42;101737.78;6214330;22;45323;-53
2023/05/29 07:56:26;;;;;;;;;22.33;19.67;;;;;38.28;20.61;101742.91;6213147;22;45316;-52
2023/05/29 07:58:53;;;;;;;;;16.00;15.00;;;;;38.60;20.57;101739.72;6212450;22;65424;-53
2023/05/29 08:01:19;;;;;;;;;19.67;17.67;;;;;38.94;20.84;101739.97;6214518;22;45185;-52
2023/05/29 08:03:44;;;;;;;;;15.33;14.33;;;;;39.24;20.01;101746.44;6214755;22;45348;-53
2023/05/29 08:06:10;;;;;;;;;18.00;18.00;;;;;39.21;19.80;101733.88;6212631;22;45273;-53
2023/05/29 08:08:35;;;;;;;;;15.67;14.67;;;;;38.85;18.27;101749.78;6161745;22;45309;-52
2023/05/29 08:11:00;;;;;;;;;16.00;16.00;;;;;39.06;19.48;101753.81;6213661;22;45411;-54
2023/05/29 08:13:27;;;;;;;;;17.67;14.67;;;;;39.44;18.96;101741.28;6186672;22;68835;-54
2023/05/29 08:15:52;;;;;;;;;14.33;14.33;;;;;39.65;17.82;101736.97;6209967;22;45561;-54
2023/05/29 08:18:18;;;;;;;;;17.33;15.67;;;;;39.65;18.81;101736.16;6183657;22;45304;-53
2023/05/29 08:20:44;;;;;;;;;12.67;12.67;;;;;39.66;17.60;101738.69;6212454;22;62089;-53
2023/05/29 08:23:10;;;;;;;;;20.00;17.67;;;;;39.91;17.78;101731.88;6212318;22;46375;-54
2023/05/29 08:25:35;;;;;;;;;16.67;16.67;;;;;40.17;17.64;101738.75;6186229;22;45448;-53
2023/05/29 08:28:00;;;;;;;;;18.00;18.00;;;;;40.49;18.47;101738.09;6210532;22;45267;-53
2023/05/29 08:30:26;;;;;;;;;15.67;15.67;;;;;41.23;16.87;101741.63;6213236;22;61399;-54
2023/05/29 08:32:51;;;;;;;;;17.67;15.00;;;;;42.15;17.08;101747.34;6185582;22;67031;-54
2023/05/29 08:35:17;;;;;;;;;15.00;15.00;;;;;42.50;16.43;101741.44;6213398;22;45343;-53
2023/05/29 08:37:43;;;;;;;;;19.67;16.67;;;;;42.70;15.62;101743.53;6212156;22;45372;-54
2023/05/29 08:40:09;;;;;;;;;17.33;17.33;;;;;42.73;15.57;101749.44;6213482;22;45567;-54
2023/05/29 08:42:40;;;;;;;;;18.00;18.00;;;;;43.28;15.80;101751.91;6161713;22;47433;-54
2023/05/29 08:45:07;;;;;;;;;18.33;17.00;;;;;43.80;15.66;101750.06;6186714;22;45822;-53
2023/05/29 08:47:33;;;;;;;;;21.00;17.67;;;;;44.75;14.66;101748.59;6187251;22;45320;-54
2023/05/29 08:50:00;;;;;;;;;18.67;16.67;;;;;45.35;14.47;101749.75;6213491;22;45681;-54
2023/05/29 08:52:27;;;;;;;;;23.33;20.00;;;;;46.12;13.56;101743.56;6186738;22;46244;-55
2023/05/29 08:54:53;;;;;;;;;15.33;15.33;;;;;46.51;13.27;101741.81;6185019;22;68814;-54
2023/05/29 08:57:20;;;;;;;;;21.00;19.67;;;;;46.94;13.70;101746.63;6186762;22;45189;-53
2023/05/29 08:59:49;;;;;;;;;17.67;17.67;;;;;47.32;12.23;101739.09;6161496;22;45548;-53
2023/05/29 09:02:15;;;;;;;;;16.33;16.00;;;;;47.18;12.57;101744.63;6210938;22;45638;-54
2023/05/29 09:04:49;;;;;;;;;15.67;14.67;;;;;47.31;13.02;101740.22;6213314;22;45597;-53
2023/05/29 09:07:17;;;;;;;;;16.00;16.00;;;;;48.06;13.08;101734.81;6187866;22;45394;-53
2023/05/29 09:09:42;;;;;;;;;18.00;16.00;;;;;48.40;12.06;101739.28;6186111;22;45219;-53
2023/05/29 09:12:09;;;;;;;;;14.67;13.67;;;;;48.84;12.10;101740.66;6211867;22;45315;-54
2023/05/29 09:14:40;;;;;;;;;15.00;14.00;;;;;49.64;11.12;101737.44;6185504;22;45345;-55
2023/05/29 09:17:08;;;;;;;;;17.33;16.00;;;;;50.01;10.70;101745.84;6212380;22;45758;-53
2023/05/29 09:19:33;;;;;;;;;12.33;12.33;;;;;50.30;10.53;101747.31;6185434;22;45584;-54
2023/05/29 09:22:07;;;;;;;;;12.67;11.67;;;;;50.13;9.79;101750.88;6185448;22;46003;-55
2023/05/29 09:24:33;;;;;;;;;18.00;17.33;;;;;50.10;11.15;101745.91;6186457;22;45353;-54
2023/05/29 09:27:00;;;;;;;;;12.67;12.67;;;;;50.56;10.12;101743.78;6185532;22;45126;-53
2023/05/29 09:29:26;;;;;;;;;17.00;15.67;;;;;50.65;9.44;101750.28;6212848;22;45402;-54
2023/05/29 09:31:52;;;;;;;;;19.67;18.00;;;;;50.43;10.80;101743.59;6185074;22;46557;-52
2023/05/29 09:34:17;;;;;;;;;13.00;12.33;;;;;50.43;10.77;101737.94;6187639;22;45338;-54
2023/05/29 09:36:43;;;;;;;;;16.00;16.00;;;;;50.95;10.55;101756.22;6187268;22;58154;-55
2023/05/29 09:39:10;;;;;;;;;21.33;16.67;;;;;51.23;10.52;101750.25;6213346;22;62087;-53
2023/05/29 09:41:43;;;;;;;;;17.67;16.33;;;;;51.76;9.55;101745.44;6214415;22;46407;-55
2023/05/29 09:44:15;;;;;;;;;17.00;15.67;;;;;52.06;10.37;101739.84;6213694;22;45355;-55
2023/05/29 09:46:42;;;;;;;;;16.33;15.67;;;;;52.60;9.47;101737.31;6164479;22;45274;-55
2023/05/29 09:49:14;;;;;;;;;23.00;21.67;;;;;52.76;9.07;101740.41;6188475;22;45574;-55
2023/05/29 09:51:39;;;;;;;;;20.33;20.33;;;;;52.11;8.87;101731.19;6187723;22;45980;-54
2023/05/29 09:54:15;;;;;;;;;16.33;16.33;;;;;51.83;9.53;101730.75;6214193;22;45267;-54
2023/05/29 09:56:42;;;;;;;;;22.33;18.67;;;;;52.35;8.90;101735.44;6215588;22;45429;-55
2023/05/29 09:59:10;;;;;;;;;18.00;18.00;;;;;52.67;9.36;101733.13;6187564;22;45410;-55
2023/05/29 10:01:39;;;;;;;;;22.33;20.33;;;;;52.89;8.85;101729.16;6214427;22;45966;-54
2023/05/29 10:04:04;;;;;;;;;19.33;16.33;;;;;53.68;9.17;101731.31;6187463;22;45366;-55
2023/05/29 10:06:30;;;;;;;;;22.33;20.00;;;;;53.80;7.99;101750.44;6214712;22;45763;-55
2023/05/29 10:08:57;;;;;;;;;23.00;20.00;;;;;53.57;8.96;101743.13;6188205;22;45368;-56
2023/05/29 10:11:26;;;;;;;;;16.00;16.00;;;;;53.70;8.89;101743.19;6187639;22;45359;-54
2023/05/29 10:13:52;;;;;;;;;17.67;15.33;;;;;53.96;9.02;101731.53;6186972;22;45335;-54
2023/05/29 10:16:21;;;;;;;;;20.33;20.00;;;;;54.10;8.76;101739.78;6215301;22;45343;-54
2023/05/29 10:18:50;;;;;;;;;19.33;17.33;;;;;54.54;8.01;101728.66;6215102;22;45210;-54
2023/05/29 10:21:16;;;;;;;;;16.33;16.33;;;;;54.09;7.43;101734.41;6162071;22;48186;-55
2023/05/29 10:23:47;;;;;;;;;17.67;17.33;;;;;54.10;8.65;101730.34;6187270;22;45385;-56
2023/05/29 10:26:18;;;;;;;;;14.33;14.33;;;;;54.70;8.46;101719.38;6213774;22;45379;-55
2023/05/29 10:28:48;;;;;;;;;16.67;16.67;;;;;55.08;7.43;101725.84;6215392;22;45340;-56
2023/05/29 10:31:20;;;;;;;;;14.00;13.67;;;;;55.07;7.84;101727.84;6214640;22;46490;-62
2023/05/29 10:33:53;;;;;;;;;13.67;13.67;;;;;55.16;8.08;101736.25;6216072;22;45384;-55
2023/05/29 10:36:21;;;;;;;;;17.33;14.00;;;;;54.67;7.23;101732.31;6188803;22;45654;-58
2023/05/29 10:38:48;;;;;;;;;13.00;13.00;;;;;54.15;8.17;101724.47;6185741;22;45391;-54
2023/05/29 10:41:26;;;;;;;;;16.67;13.67;;;;;54.06;8.34;101727.41;6162373;22;47225;-52
2023/05/29 10:43:53;;;;;;;;;17.00;14.00;;;;;54.14;7.50;101720.81;6213004;22;45328;-55
2023/05/29 10:46:19;;;;;;;;;13.67;13.67;;;;;55.02;7.04;101714.69;6211406;22;45316;-54
2023/05/29 10:48:44;;;;;;;;;17.33;17.33;;;;;55.25;6.81;101716.19;6212731;22;45466;-55
2023/05/29 10:51:25;;;;;;;;;16.67;16.67;;;;;54.94;6.87;101718.50;6213772;22;46444;-55
2023/05/29 10:53:50;;;;;;;;;17.33;15.00;;;;;54.77;7.68;101713.09;6184693;22;45324;-56
2023/05/29 10:56:27;;;;;;;;;18.67;17.33;;;;;54.67;7.25;101718.06;6214561;22;45165;-55
2023/05/29 10:59:00;;;;;;;;;13.67;13.67;;;;;53.86;8.40;101715.78;6187747;22;45267;-56
2023/05/29 11:01:27;;;;;;;;;12.67;12.67;;;;;53.23;8.23;101708.16;6210970;22;45761;-54
2023/05/29 11:04:15;;;;;;;;;12.33;12.33;;;;;52.90;8.40;101722.31;6187165;22;45298;-54
2023/05/29 11:06:40;;;;;;;;;14.00;14.00;;;;;52.39;8.78;101720.22;6214214;22;45283;-55
2023/05/29 11:09:08;;;;;;;;;15.00;14.00;;;;;52.32;8.95;101710.59;6187114;22;45423;-56